sensor_id;sensor_type;location;lat;lon;timestamp;P1;durP1;ratioP1;P2;durP2;ratioP2
71152;SDS011;58822;51.438;5.436;2022-07-05T00:00:41;7.15;;;2.70;;
71152;SDS011;58822;51.438;5.436;2022-07-05T00:03:07;6.22;;;2.88;;
71152;SDS011;58822;51.438;5.436;2022-07-05T00:05:33;6.50;;;2.70;;
71152;SDS011;58822;51.438;5.436;2022-07-05T00:07:59;14.60;;;2.92;;
71152;SDS011;58822;51.438;5.436;2022-07-05T00:10:24;5.88;;;2.60;;
71152;SDS011;58822;51.438;5.436;2022-07-05T00:12:50;5.50;;;2.70;;
71152;SDS011;58822;51.438;5.436;2022-07-05T00:15:15;8.90;;;3.00;;
71152;SDS011;58822;51.438;5.436;2022-07-05T00:17:40;8.05;;;2.95;;
71152;SDS011;58822;51.438;5.436;2022-07-05T00:20:06;7.50;;;3.00;;
71152;SDS011;58822;51.438;5.436;2022-07-05T00:22:32;6.40;;;2.50;;
71152;SDS011;58822;51.438;5.436;2022-07-05T00:24:57;5.13;;;2.70;;
71152;SDS011;58822;51.438;5.436;2022-07-05T00:27:23;5.78;;;2.35;;
71152;SDS011;58822;51.438;5.436;2022-07-05T00:29:48;6.22;;;2.60;;
71152;SDS011;58822;51.438;5.436;2022-07-05T00:32:14;4.47;;;2.60;;
71152;SDS011;58822;51.438;5.436;2022-07-05T00:34:39;4.28;;;2.40;;
71152;SDS011;58822;51.438;5.436;2022-07-05T00:37:04;5.10;;;2.40;;
71152;SDS011;58822;51.438;5.436;2022-07-05T00:39:30;6.47;;;2.65;;
71152;SDS011;58822;51.438;5.436;2022-07-05T00:41:55;7.15;;;2.53;;
71152;SDS011;58822;51.438;5.436;2022-07-05T00:44:31;6.05;;;2.70;;
71152;SDS011;58822;51.438;5.436;2022-07-05T00:47:01;4.57;;;2.30;;
71152;SDS011;58822;51.438;5.436;2022-07-05T00:49:28;3.95;;;2.60;;
71152;SDS011;58822;51.438;5.436;2022-07-05T00:51:57;6.82;;;2.70;;
71152;SDS011;58822;51.438;5.436;2022-07-05T00:54:27;5.97;;;2.93;;
71152;SDS011;58822;51.438;5.436;2022-07-05T00:56:53;7.03;;;2.97;;
71152;SDS011;58822;51.438;5.436;2022-07-05T00:59:20;9.57;;;2.70;;
71152;SDS011;58822;51.438;5.436;2022-07-05T01:01:45;8.70;;;2.90;;
71152;SDS011;58822;51.438;5.436;2022-07-05T01:04:11;6.40;;;2.60;;
71152;SDS011;58822;51.438;5.436;2022-07-05T01:06:38;5.97;;;2.72;;
71152;SDS011;58822;51.438;5.436;2022-07-05T01:09:04;7.10;;;2.90;;
71152;SDS011;58822;51.438;5.436;2022-07-05T01:11:30;6.78;;;2.72;;
71152;SDS011;58822;51.438;5.436;2022-07-05T01:13:56;11.30;;;3.10;;
71152;SDS011;58822;51.438;5.436;2022-07-05T01:16:24;6.25;;;3.10;;
71152;SDS011;58822;51.438;5.436;2022-07-05T01:18:50;6.22;;;2.65;;
71152;SDS011;58822;51.438;5.436;2022-07-05T01:21:15;7.05;;;3.00;;
71152;SDS011;58822;51.438;5.436;2022-07-05T01:23:45;5.28;;;2.97;;
71152;SDS011;58822;51.438;5.436;2022-07-05T01:26:10;5.95;;;3.00;;
71152;SDS011;58822;51.438;5.436;2022-07-05T01:28:36;5.30;;;2.80;;
71152;SDS011;58822;51.438;5.436;2022-07-05T01:31:01;9.13;;;2.70;;
71152;SDS011;58822;51.438;5.436;2022-07-05T01:33:30;7.68;;;3.13;;
71152;SDS011;58822;51.438;5.436;2022-07-05T01:38:21;6.10;;;2.72;;
71152;SDS011;58822;51.438;5.436;2022-07-05T01:40:47;6.93;;;3.08;;
71152;SDS011;58822;51.438;5.436;2022-07-05T01:43:16;10.45;;;3.50;;
71152;SDS011;58822;51.438;5.436;2022-07-05T01:45:43;8.60;;;3.20;;
71152;SDS011;58822;51.438;5.436;2022-07-05T01:48:18;6.47;;;3.50;;
71152;SDS011;58822;51.438;5.436;2022-07-05T01:50:47;7.28;;;3.38;;
71152;SDS011;58822;51.438;5.436;2022-07-05T01:53:29;5.30;;;2.92;;
71152;SDS011;58822;51.438;5.436;2022-07-05T01:55:56;6.10;;;3.13;;
71152;SDS011;58822;51.438;5.436;2022-07-05T01:58:23;7.40;;;3.30;;
71152;SDS011;58822;51.438;5.436;2022-07-05T02:00:51;5.60;;;3.20;;
71152;SDS011;58822;51.438;5.436;2022-07-05T02:03:17;10.97;;;3.40;;
71152;SDS011;58822;51.438;5.436;2022-07-05T02:05:44;5.85;;;3.20;;
71152;SDS011;58822;51.438;5.436;2022-07-05T02:08:10;7.20;;;3.28;;
71152;SDS011;58822;51.438;5.436;2022-07-05T02:10:37;9.10;;;2.97;;
71152;SDS011;58822;51.438;5.436;2022-07-05T02:13:04;6.13;;;3.08;;
71152;SDS011;58822;51.438;5.436;2022-07-05T02:15:31;5.60;;;2.95;;
71152;SDS011;58822;51.438;5.436;2022-07-05T02:18:00;6.68;;;3.10;;
71152;SDS011;58822;51.438;5.436;2022-07-05T02:20:27;5.25;;;3.10;;
71152;SDS011;58822;51.438;5.436;2022-07-05T02:22:53;5.68;;;3.35;;
71152;SDS011;58822;51.438;5.436;2022-07-05T02:25:18;5.40;;;3.40;;
71152;SDS011;58822;51.438;5.436;2022-07-05T02:27:44;6.47;;;3.30;;
71152;SDS011;58822;51.438;5.436;2022-07-05T02:30:10;7.60;;;3.65;;
71152;SDS011;58822;51.438;5.436;2022-07-05T02:32:36;5.35;;;3.28;;
71152;SDS011;58822;51.438;5.436;2022-07-05T02:35:02;5.43;;;3.28;;
71152;SDS011;58822;51.438;5.436;2022-07-05T02:37:28;7.75;;;4.00;;
71152;SDS011;58822;51.438;5.436;2022-07-05T02:39:54;6.97;;;4.47;;
71152;SDS011;58822;51.438;5.436;2022-07-05T02:42:19;13.77;;;3.90;;
71152;SDS011;58822;51.438;5.436;2022-07-05T02:44:45;13.40;;;4.70;;
71152;SDS011;58822;51.438;5.436;2022-07-05T02:47:11;9.43;;;4.95;;
71152;SDS011;58822;51.438;5.436;2022-07-05T02:49:36;7.43;;;4.63;;
71152;SDS011;58822;51.438;5.436;2022-07-05T02:52:02;11.18;;;4.38;;
71152;SDS011;58822;51.438;5.436;2022-07-05T02:54:27;9.32;;;4.50;;
71152;SDS011;58822;51.438;5.436;2022-07-05T02:56:52;8.65;;;4.15;;
71152;SDS011;58822;51.438;5.436;2022-07-05T02:59:18;8.63;;;4.68;;
71152;SDS011;58822;51.438;5.436;2022-07-05T03:01:43;9.73;;;4.28;;
71152;SDS011;58822;51.438;5.436;2022-07-05T03:04:08;6.65;;;4.25;;
71152;SDS011;58822;51.438;5.436;2022-07-05T03:06:35;6.97;;;4.15;;
71152;SDS011;58822;51.438;5.436;2022-07-05T03:09:06;8.38;;;4.18;;
71152;SDS011;58822;51.438;5.436;2022-07-05T03:11:32;11.32;;;5.50;;
71152;SDS011;58822;51.438;5.436;2022-07-05T03:13:57;10.23;;;6.28;;
71152;SDS011;58822;51.438;5.436;2022-07-05T03:16:22;10.88;;;6.63;;
71152;SDS011;58822;51.438;5.436;2022-07-05T03:18:49;11.98;;;6.07;;
71152;SDS011;58822;51.438;5.436;2022-07-05T03:21:15;9.40;;;6.20;;
71152;SDS011;58822;51.438;5.436;2022-07-05T03:23:40;11.60;;;5.72;;
71152;SDS011;58822;51.438;5.436;2022-07-05T03:26:06;21.23;;;5.88;;
71152;SDS011;58822;51.438;5.436;2022-07-05T03:28:31;9.35;;;5.22;;
71152;SDS011;58822;51.438;5.436;2022-07-05T03:30:57;9.75;;;5.10;;
71152;SDS011;58822;51.438;5.436;2022-07-05T03:33:23;11.98;;;5.43;;
71152;SDS011;58822;51.438;5.436;2022-07-05T03:35:48;8.50;;;5.60;;
71152;SDS011;58822;51.438;5.436;2022-07-05T03:38:14;11.38;;;5.72;;
71152;SDS011;58822;51.438;5.436;2022-07-05T03:40:39;10.18;;;5.35;;
71152;SDS011;58822;51.438;5.436;2022-07-05T03:43:04;9.60;;;5.25;;
71152;SDS011;58822;51.438;5.436;2022-07-05T03:45:30;9.88;;;5.43;;
71152;SDS011;58822;51.438;5.436;2022-07-05T03:47:58;11.18;;;4.75;;
71152;SDS011;58822;51.438;5.436;2022-07-05T03:50:31;8.55;;;4.93;;
71152;SDS011;58822;51.438;5.436;2022-07-05T03:52:56;9.02;;;4.65;;
71152;SDS011;58822;51.438;5.436;2022-07-05T03:55:21;8.90;;;5.05;;
71152;SDS011;58822;51.438;5.436;2022-07-05T03:57:47;9.88;;;4.80;;
71152;SDS011;58822;51.438;5.436;2022-07-05T04:00:13;8.00;;;4.78;;
71152;SDS011;58822;51.438;5.436;2022-07-05T04:02:38;10.70;;;5.10;;
71152;SDS011;58822;51.438;5.436;2022-07-05T04:05:04;8.73;;;5.20;;
71152;SDS011;58822;51.438;5.436;2022-07-05T04:07:30;7.35;;;4.70;;
71152;SDS011;58822;51.438;5.436;2022-07-05T04:09:55;7.30;;;5.10;;
71152;SDS011;58822;51.438;5.436;2022-07-05T04:12:21;11.43;;;5.18;;
71152;SDS011;58822;51.438;5.436;2022-07-05T04:14:46;10.10;;;5.22;;
71152;SDS011;58822;51.438;5.436;2022-07-05T04:17:12;8.85;;;5.30;;
71152;SDS011;58822;51.438;5.436;2022-07-05T04:19:37;8.93;;;5.20;;
71152;SDS011;58822;51.438;5.436;2022-07-05T04:22:03;8.30;;;5.75;;
71152;SDS011;58822;51.438;5.436;2022-07-05T04:24:28;7.90;;;5.25;;
71152;SDS011;58822;51.438;5.436;2022-07-05T04:26:54;8.38;;;5.22;;
71152;SDS011;58822;51.438;5.436;2022-07-05T04:29:19;11.05;;;5.30;;
71152;SDS011;58822;51.438;5.436;2022-07-05T04:31:44;12.00;;;5.45;;
71152;SDS011;58822;51.438;5.436;2022-07-05T04:34:10;8.93;;;5.45;;
71152;SDS011;58822;51.438;5.436;2022-07-05T04:36:35;11.90;;;6.25;;
71152;SDS011;58822;51.438;5.436;2022-07-05T04:39:02;9.55;;;6.00;;
71152;SDS011;58822;51.438;5.436;2022-07-05T04:41:28;7.57;;;5.85;;
71152;SDS011;58822;51.438;5.436;2022-07-05T04:43:54;13.55;;;6.30;;
71152;SDS011;58822;51.438;5.436;2022-07-05T04:46:19;10.57;;;6.13;;
71152;SDS011;58822;51.438;5.436;2022-07-05T04:48:45;9.73;;;6.30;;
71152;SDS011;58822;51.438;5.436;2022-07-05T04:51:10;13.48;;;6.63;;
71152;SDS011;58822;51.438;5.436;2022-07-05T04:53:35;17.65;;;6.20;;
71152;SDS011;58822;51.438;5.436;2022-07-05T04:56:01;11.30;;;7.03;;
71152;SDS011;58822;51.438;5.436;2022-07-05T04:58:26;19.40;;;7.15;;
71152;SDS011;58822;51.438;5.436;2022-07-05T05:00:55;34.35;;;7.82;;
71152;SDS011;58822;51.438;5.436;2022-07-05T05:03:20;11.80;;;7.68;;
71152;SDS011;58822;51.438;5.436;2022-07-05T05:05:46;14.13;;;7.07;;
71152;SDS011;58822;51.438;5.436;2022-07-05T05:08:11;15.93;;;7.18;;
71152;SDS011;58822;51.438;5.436;2022-07-05T05:10:37;12.43;;;7.05;;
71152;SDS011;58822;51.438;5.436;2022-07-05T05:13:02;13.13;;;7.13;;
71152;SDS011;58822;51.438;5.436;2022-07-05T05:15:28;11.27;;;6.93;;
71152;SDS011;58822;51.438;5.436;2022-07-05T05:17:53;15.25;;;6.95;;
71152;SDS011;58822;51.438;5.436;2022-07-05T05:20:19;15.20;;;7.22;;
71152;SDS011;58822;51.438;5.436;2022-07-05T05:22:45;17.20;;;6.70;;
71152;SDS011;58822;51.438;5.436;2022-07-05T05:25:11;16.88;;;6.75;;
71152;SDS011;58822;51.438;5.436;2022-07-05T05:27:55;12.07;;;6.18;;
71152;SDS011;58822;51.438;5.436;2022-07-05T05:30:20;13.98;;;6.30;;
71152;SDS011;58822;51.438;5.436;2022-07-05T05:32:46;11.27;;;6.53;;
71152;SDS011;58822;51.438;5.436;2022-07-05T05:35:12;20.70;;;7.30;;
71152;SDS011;58822;51.438;5.436;2022-07-05T05:37:50;17.17;;;7.30;;
71152;SDS011;58822;51.438;5.436;2022-07-05T05:40:21;16.83;;;7.35;;
71152;SDS011;58822;51.438;5.436;2022-07-05T05:42:48;14.75;;;6.20;;
71152;SDS011;58822;51.438;5.436;2022-07-05T05:45:14;65.75;;;12.13;;
71152;SDS011;58822;51.438;5.436;2022-07-05T05:47:56;73.65;;;11.50;;
71152;SDS011;58822;51.438;5.436;2022-07-05T05:50:24;20.13;;;7.00;;
71152;SDS011;58822;51.438;5.436;2022-07-05T05:52:54;12.52;;;6.88;;
71152;SDS011;58822;51.438;5.436;2022-07-05T05:55:20;14.98;;;6.57;;
71152;SDS011;58822;51.438;5.436;2022-07-05T05:57:49;18.08;;;6.85;;
71152;SDS011;58822;51.438;5.436;2022-07-05T06:00:15;14.07;;;6.97;;
71152;SDS011;58822;51.438;5.436;2022-07-05T06:02:41;17.83;;;6.28;;
71152;SDS011;58822;51.438;5.436;2022-07-05T06:05:08;9.10;;;6.47;;
71152;SDS011;58822;51.438;5.436;2022-07-05T06:07:50;10.55;;;6.70;;
71152;SDS011;58822;51.438;5.436;2022-07-05T06:10:19;11.13;;;6.93;;
71152;SDS011;58822;51.438;5.436;2022-07-05T06:12:46;21.25;;;7.72;;
71152;SDS011;58822;51.438;5.436;2022-07-05T06:15:12;30.65;;;7.65;;
71152;SDS011;58822;51.438;5.436;2022-07-05T06:17:38;24.40;;;6.53;;
71152;SDS011;58822;51.438;5.436;2022-07-05T06:20:05;10.68;;;6.07;;
71152;SDS011;58822;51.438;5.436;2022-07-05T06:22:32;10.30;;;5.97;;
71152;SDS011;58822;51.438;5.436;2022-07-05T06:24:57;19.67;;;7.28;;
71152;SDS011;58822;51.438;5.436;2022-07-05T06:27:23;12.80;;;5.57;;
71152;SDS011;58822;51.438;5.436;2022-07-05T06:29:48;14.68;;;5.68;;
71152;SDS011;58822;51.438;5.436;2022-07-05T06:32:13;14.45;;;5.93;;
71152;SDS011;58822;51.438;5.436;2022-07-05T06:34:39;12.30;;;5.72;;
71152;SDS011;58822;51.438;5.436;2022-07-05T06:37:04;18.45;;;6.13;;
71152;SDS011;58822;51.438;5.436;2022-07-05T06:39:30;26.65;;;8.63;;
71152;SDS011;58822;51.438;5.436;2022-07-05T06:41:55;25.67;;;7.90;;
71152;SDS011;58822;51.438;5.436;2022-07-05T06:44:20;25.58;;;8.35;;
71152;SDS011;58822;51.438;5.436;2022-07-05T06:46:46;45.45;;;7.65;;
71152;SDS011;58822;51.438;5.436;2022-07-05T06:49:11;26.38;;;6.95;;
71152;SDS011;58822;51.438;5.436;2022-07-05T06:51:37;13.68;;;5.75;;
71152;SDS011;58822;51.438;5.436;2022-07-05T06:54:02;10.40;;;5.55;;
71152;SDS011;58822;51.438;5.436;2022-07-05T06:56:28;10.82;;;4.80;;
71152;SDS011;58822;51.438;5.436;2022-07-05T06:58:53;14.68;;;5.25;;
71152;SDS011;58822;51.438;5.436;2022-07-05T07:01:18;17.02;;;5.85;;
71152;SDS011;58822;51.438;5.436;2022-07-05T07:03:44;10.80;;;4.95;;
71152;SDS011;58822;51.438;5.436;2022-07-05T07:06:09;10.23;;;4.70;;
71152;SDS011;58822;51.438;5.436;2022-07-05T07:08:34;14.90;;;4.28;;
71152;SDS011;58822;51.438;5.436;2022-07-05T07:11:18;10.98;;;4.43;;
71152;SDS011;58822;51.438;5.436;2022-07-05T07:13:44;10.98;;;4.95;;
71152;SDS011;58822;51.438;5.436;2022-07-05T07:16:09;9.95;;;5.00;;
71152;SDS011;58822;51.438;5.436;2022-07-05T07:18:34;10.75;;;4.35;;
71152;SDS011;58822;51.438;5.436;2022-07-05T07:21:00;9.60;;;3.78;;
71152;SDS011;58822;51.438;5.436;2022-07-05T07:23:26;12.50;;;4.60;;
71152;SDS011;58822;51.438;5.436;2022-07-05T07:25:51;10.52;;;5.00;;
71152;SDS011;58822;51.438;5.436;2022-07-05T07:28:17;12.85;;;4.20;;
71152;SDS011;58822;51.438;5.436;2022-07-05T07:30:42;10.10;;;3.67;;
71152;SDS011;58822;51.438;5.436;2022-07-05T07:33:08;15.45;;;4.80;;
71152;SDS011;58822;51.438;5.436;2022-07-05T07:35:33;20.20;;;4.28;;
71152;SDS011;58822;51.438;5.436;2022-07-05T07:37:58;16.02;;;5.10;;
71152;SDS011;58822;51.438;5.436;2022-07-05T07:40:24;10.23;;;4.93;;
71152;SDS011;58822;51.438;5.436;2022-07-05T07:42:49;13.70;;;5.40;;
71152;SDS011;58822;51.438;5.436;2022-07-05T07:45:14;14.35;;;6.82;;
71152;SDS011;58822;51.438;5.436;2022-07-05T07:47:40;12.30;;;5.07;;
71152;SDS011;58822;51.438;5.436;2022-07-05T07:50:06;12.23;;;5.15;;
71152;SDS011;58822;51.438;5.436;2022-07-05T07:52:32;23.67;;;4.93;;
71152;SDS011;58822;51.438;5.436;2022-07-05T07:54:58;12.63;;;4.82;;
71152;SDS011;58822;51.438;5.436;2022-07-05T07:57:24;15.50;;;5.25;;
71152;SDS011;58822;51.438;5.436;2022-07-05T07:59:50;14.80;;;5.38;;
71152;SDS011;58822;51.438;5.436;2022-07-05T08:02:15;14.48;;;5.60;;
71152;SDS011;58822;51.438;5.436;2022-07-05T08:04:42;16.33;;;6.57;;
71152;SDS011;58822;51.438;5.436;2022-07-05T08:07:09;14.68;;;6.30;;
71152;SDS011;58822;51.438;5.436;2022-07-05T08:09:35;13.40;;;5.97;;
71152;SDS011;58822;51.438;5.436;2022-07-05T08:12:00;17.30;;;5.88;;
71152;SDS011;58822;51.438;5.436;2022-07-05T08:14:25;14.40;;;6.00;;
71152;SDS011;58822;51.438;5.436;2022-07-05T08:16:51;19.15;;;6.47;;
71152;SDS011;58822;51.438;5.436;2022-07-05T08:19:17;15.63;;;6.05;;
71152;SDS011;58822;51.438;5.436;2022-07-05T08:22:01;18.83;;;6.57;;
71152;SDS011;58822;51.438;5.436;2022-07-05T08:24:27;17.55;;;5.80;;
71152;SDS011;58822;51.438;5.436;2022-07-05T08:26:53;17.88;;;6.47;;
71152;SDS011;58822;51.438;5.436;2022-07-05T08:29:18;19.95;;;6.15;;
71152;SDS011;58822;51.438;5.436;2022-07-05T08:31:46;14.02;;;6.07;;
71152;SDS011;58822;51.438;5.436;2022-07-05T08:34:14;14.05;;;5.97;;
71152;SDS011;58822;51.438;5.436;2022-07-05T08:36:40;12.65;;;6.50;;
71152;SDS011;58822;51.438;5.436;2022-07-05T08:41:35;19.42;;;6.00;;
71152;SDS011;58822;51.438;5.436;2022-07-05T08:46:29;17.65;;;6.60;;
71152;SDS011;58822;51.438;5.436;2022-07-05T08:48:56;15.30;;;6.35;;
71152;SDS011;58822;51.438;5.436;2022-07-05T08:53:52;13.00;;;6.13;;
71152;SDS011;58822;51.438;5.436;2022-07-05T08:56:20;16.35;;;6.30;;
71152;SDS011;58822;51.438;5.436;2022-07-05T08:58:52;17.85;;;6.57;;
71152;SDS011;58822;51.438;5.436;2022-07-05T09:01:17;13.30;;;5.90;;
71152;SDS011;58822;51.438;5.436;2022-07-05T09:03:44;12.68;;;6.30;;
71152;SDS011;58822;51.438;5.436;2022-07-05T09:06:13;13.23;;;6.50;;
71152;SDS011;58822;51.438;5.436;2022-07-05T09:08:42;13.40;;;6.53;;
71152;SDS011;58822;51.438;5.436;2022-07-05T09:11:08;28.67;;;6.75;;
71152;SDS011;58822;51.438;5.436;2022-07-05T09:13:36;18.45;;;6.10;;
71152;SDS011;58822;51.438;5.436;2022-07-05T09:21:24;12.00;;;5.53;;
71152;SDS011;58822;51.438;5.436;2022-07-05T09:26:31;10.68;;;4.28;;
71152;SDS011;58822;51.438;5.436;2022-07-05T09:29:18;9.38;;;3.78;;
71152;SDS011;58822;51.438;5.436;2022-07-05T09:31:48;9.90;;;4.00;;
71152;SDS011;58822;51.438;5.436;2022-07-05T09:34:15;12.60;;;5.03;;
71152;SDS011;58822;51.438;5.436;2022-07-05T09:36:52;10.13;;;4.35;;
71152;SDS011;58822;51.438;5.436;2022-07-05T09:39:40;8.00;;;3.40;;
71152;SDS011;58822;51.438;5.436;2022-07-05T09:42:20;8.15;;;2.58;;
71152;SDS011;58822;51.438;5.436;2022-07-05T09:44:52;8.60;;;3.38;;
71152;SDS011;58822;51.438;5.436;2022-07-05T09:47:19;10.00;;;4.00;;
71152;SDS011;58822;51.438;5.436;2022-07-05T09:49:56;11.80;;;4.10;;
71152;SDS011;58822;51.438;5.436;2022-07-05T09:55:06;11.43;;;3.53;;
71152;SDS011;58822;51.438;5.436;2022-07-05T09:57:38;13.00;;;4.60;;
71152;SDS011;58822;51.438;5.436;2022-07-05T10:02:35;8.23;;;3.00;;
71152;SDS011;58822;51.438;5.436;2022-07-05T10:07:34;11.23;;;2.80;;
71152;SDS011;58822;51.438;5.436;2022-07-05T10:10:02;9.73;;;2.87;;
71152;SDS011;58822;51.438;5.436;2022-07-05T10:12:27;6.40;;;2.72;;
71152;SDS011;58822;51.438;5.436;2022-07-05T10:14:54;6.40;;;2.65;;
71152;SDS011;58822;51.438;5.436;2022-07-05T10:17:23;6.13;;;2.75;;
71152;SDS011;58822;51.438;5.436;2022-07-05T10:19:48;11.40;;;3.20;;
71152;SDS011;58822;51.438;5.436;2022-07-05T10:22:16;8.65;;;2.95;;
71152;SDS011;58822;51.438;5.436;2022-07-05T10:24:41;4.90;;;2.97;;
71152;SDS011;58822;51.438;5.436;2022-07-05T10:27:07;9.95;;;2.70;;
71152;SDS011;58822;51.438;5.436;2022-07-05T10:29:34;4.93;;;2.90;;
71152;SDS011;58822;51.438;5.436;2022-07-05T10:31:59;5.88;;;2.70;;
71152;SDS011;58822;51.438;5.436;2022-07-05T10:34:26;5.68;;;2.95;;
71152;SDS011;58822;51.438;5.436;2022-07-05T10:36:54;6.77;;;2.90;;
71152;SDS011;58822;51.438;5.436;2022-07-05T10:39:19;10.60;;;3.22;;
71152;SDS011;58822;51.438;5.436;2022-07-05T10:41:48;9.52;;;3.30;;
71152;SDS011;58822;51.438;5.436;2022-07-05T10:44:25;9.88;;;2.90;;
71152;SDS011;58822;51.438;5.436;2022-07-05T10:46:51;6.53;;;3.20;;
71152;SDS011;58822;51.438;5.436;2022-07-05T10:49:17;8.77;;;3.35;;
71152;SDS011;58822;51.438;5.436;2022-07-05T10:51:45;8.43;;;3.40;;
71152;SDS011;58822;51.438;5.436;2022-07-05T10:54:12;7.35;;;3.35;;
71152;SDS011;58822;51.438;5.436;2022-07-05T10:57:19;11.45;;;4.53;;
71152;SDS011;58822;51.438;5.436;2022-07-05T11:02:35;7.38;;;3.70;;
71152;SDS011;58822;51.438;5.436;2022-07-05T11:05:02;6.50;;;3.80;;
71152;SDS011;58822;51.438;5.436;2022-07-05T11:10:24;8.95;;;3.13;;
71152;SDS011;58822;51.438;5.436;2022-07-05T11:12:50;7.75;;;3.53;;
71152;SDS011;58822;51.438;5.436;2022-07-05T11:15:15;7.22;;;3.63;;
71152;SDS011;58822;51.438;5.436;2022-07-05T11:17:48;6.35;;;2.85;;
71152;SDS011;58822;51.438;5.436;2022-07-05T11:20:14;6.00;;;2.50;;
71152;SDS011;58822;51.438;5.436;2022-07-05T11:23:26;9.68;;;2.80;;
71152;SDS011;58822;51.438;5.436;2022-07-05T11:25:27;7.50;;;2.90;;
71152;SDS011;58822;51.438;5.436;2022-07-05T11:28:05;7.88;;;2.70;;
71152;SDS011;58822;51.438;5.436;2022-07-05T11:30:43;5.53;;;2.80;;
71152;SDS011;58822;51.438;5.436;2022-07-05T11:33:26;5.93;;;2.05;;
71152;SDS011;58822;51.438;5.436;2022-07-05T11:35:56;6.65;;;2.17;;
71152;SDS011;58822;51.438;5.436;2022-07-05T11:38:23;8.38;;;2.22;;
71152;SDS011;58822;51.438;5.436;2022-07-05T11:40:48;8.07;;;2.40;;
71152;SDS011;58822;51.438;5.436;2022-07-05T11:43:14;5.88;;;2.17;;
71152;SDS011;58822;51.438;5.436;2022-07-05T11:45:39;7.07;;;2.20;;
71152;SDS011;58822;51.438;5.436;2022-07-05T11:48:05;9.38;;;2.22;;
71152;SDS011;58822;51.438;5.436;2022-07-05T11:50:39;6.18;;;2.20;;
71152;SDS011;58822;51.438;5.436;2022-07-05T11:53:05;6.10;;;2.22;;
71152;SDS011;58822;51.438;5.436;2022-07-05T11:55:30;4.68;;;2.08;;
71152;SDS011;58822;51.438;5.436;2022-07-05T11:57:56;3.83;;;1.65;;
71152;SDS011;58822;51.438;5.436;2022-07-05T12:00:35;4.38;;;1.50;;
71152;SDS011;58822;51.438;5.436;2022-07-05T12:03:10;7.80;;;1.80;;
71152;SDS011;58822;51.438;5.436;2022-07-05T12:05:37;5.82;;;1.70;;
71152;SDS011;58822;51.438;5.436;2022-07-05T12:08:02;4.53;;;1.52;;
71152;SDS011;58822;51.438;5.436;2022-07-05T12:10:28;3.50;;;1.38;;
71152;SDS011;58822;51.438;5.436;2022-07-05T12:13:12;2.58;;;1.40;;
71152;SDS011;58822;51.438;5.436;2022-07-05T12:15:38;4.00;;;1.60;;
71152;SDS011;58822;51.438;5.436;2022-07-05T12:18:04;4.40;;;2.30;;
71152;SDS011;58822;51.438;5.436;2022-07-05T12:20:40;4.32;;;2.33;;
71152;SDS011;58822;51.438;5.436;2022-07-05T12:23:06;5.70;;;3.00;;
71152;SDS011;58822;51.438;5.436;2022-07-05T12:25:32;11.57;;;2.90;;
71152;SDS011;58822;51.438;5.436;2022-07-05T12:27:59;9.68;;;2.50;;
71152;SDS011;58822;51.438;5.436;2022-07-05T12:30:28;7.88;;;2.97;;
71152;SDS011;58822;51.438;5.436;2022-07-05T12:33:05;10.70;;;2.45;;
71152;SDS011;58822;51.438;5.436;2022-07-05T12:38:14;5.45;;;1.90;;
71152;SDS011;58822;51.438;5.436;2022-07-05T12:40:44;3.88;;;2.30;;
71152;SDS011;58822;51.438;5.436;2022-07-05T12:43:12;5.80;;;2.20;;
71152;SDS011;58822;51.438;5.436;2022-07-05T12:45:39;8.05;;;2.72;;
71152;SDS011;58822;51.438;5.436;2022-07-05T12:48:07;5.70;;;2.20;;
71152;SDS011;58822;51.438;5.436;2022-07-05T12:50:43;4.65;;;2.35;;
71152;SDS011;58822;51.438;5.436;2022-07-05T12:53:13;8.63;;;1.98;;
71152;SDS011;58822;51.438;5.436;2022-07-05T12:55:58;3.47;;;1.63;;
71152;SDS011;58822;51.438;5.436;2022-07-05T12:58:46;5.35;;;2.00;;
71152;SDS011;58822;51.438;5.436;2022-07-05T13:01:26;4.53;;;1.90;;
71152;SDS011;58822;51.438;5.436;2022-07-05T13:12:03;6.18;;;1.58;;
71152;SDS011;58822;51.438;5.436;2022-07-05T13:14:33;5.45;;;1.80;;
71152;SDS011;58822;51.438;5.436;2022-07-05T13:16:58;3.38;;;1.45;;
71152;SDS011;58822;51.438;5.436;2022-07-05T13:19:24;3.65;;;1.70;;
71152;SDS011;58822;51.438;5.436;2022-07-05T13:21:49;5.50;;;1.58;;
71152;SDS011;58822;51.438;5.436;2022-07-05T13:24:15;3.90;;;1.50;;
71152;SDS011;58822;51.438;5.436;2022-07-05T13:26:40;3.80;;;1.50;;
71152;SDS011;58822;51.438;5.436;2022-07-05T13:29:06;7.20;;;1.70;;
71152;SDS011;58822;51.438;5.436;2022-07-05T13:31:31;3.97;;;1.50;;
71152;SDS011;58822;51.438;5.436;2022-07-05T13:33:58;3.63;;;1.55;;
71152;SDS011;58822;51.438;5.436;2022-07-05T13:36:23;2.90;;;1.52;;
71152;SDS011;58822;51.438;5.436;2022-07-05T13:38:49;5.00;;;1.40;;
71152;SDS011;58822;51.438;5.436;2022-07-05T13:41:15;3.13;;;1.55;;
71152;SDS011;58822;51.438;5.436;2022-07-05T13:43:40;9.60;;;1.40;;
71152;SDS011;58822;51.438;5.436;2022-07-05T13:46:06;11.25;;;1.42;;
71152;SDS011;58822;51.438;5.436;2022-07-05T13:48:31;6.45;;;1.80;;
71152;SDS011;58822;51.438;5.436;2022-07-05T13:50:58;2.83;;;1.42;;
71152;SDS011;58822;51.438;5.436;2022-07-05T13:53:23;6.65;;;1.67;;
71152;SDS011;58822;51.438;5.436;2022-07-05T13:55:49;13.85;;;1.77;;
71152;SDS011;58822;51.438;5.436;2022-07-05T13:58:14;5.18;;;1.38;;
71152;SDS011;58822;51.438;5.436;2022-07-05T14:00:39;3.05;;;1.25;;
71152;SDS011;58822;51.438;5.436;2022-07-05T14:03:05;4.18;;;1.45;;
71152;SDS011;58822;51.438;5.436;2022-07-05T14:05:30;6.57;;;1.48;;
71152;SDS011;58822;51.438;5.436;2022-07-05T14:07:56;5.32;;;1.70;;
71152;SDS011;58822;51.438;5.436;2022-07-05T14:10:21;3.35;;;1.77;;
71152;SDS011;58822;51.438;5.436;2022-07-05T14:12:47;10.68;;;1.50;;
71152;SDS011;58822;51.438;5.436;2022-07-05T14:15:12;3.97;;;1.50;;
71152;SDS011;58822;51.438;5.436;2022-07-05T14:17:37;2.33;;;1.30;;
71152;SDS011;58822;51.438;5.436;2022-07-05T14:20:04;3.33;;;1.70;;
71152;SDS011;58822;51.438;5.436;2022-07-05T14:22:30;5.22;;;1.30;;
71152;SDS011;58822;51.438;5.436;2022-07-05T14:24:55;4.82;;;1.50;;
71152;SDS011;58822;51.438;5.436;2022-07-05T14:27:21;6.63;;;1.40;;
71152;SDS011;58822;51.438;5.436;2022-07-05T14:29:46;6.30;;;1.20;;
71152;SDS011;58822;51.438;5.436;2022-07-05T14:32:12;2.47;;;1.20;;
71152;SDS011;58822;51.438;5.436;2022-07-05T14:34:37;3.83;;;1.20;;
71152;SDS011;58822;51.438;5.436;2022-07-05T14:37:02;6.38;;;1.35;;
71152;SDS011;58822;51.438;5.436;2022-07-05T14:39:28;5.40;;;1.20;;
71152;SDS011;58822;51.438;5.436;2022-07-05T14:41:53;2.75;;;1.52;;
71152;SDS011;58822;51.438;5.436;2022-07-05T14:44:19;3.72;;;1.27;;
71152;SDS011;58822;51.438;5.436;2022-07-05T14:46:45;6.03;;;1.20;;
71152;SDS011;58822;51.438;5.436;2022-07-05T14:49:10;2.72;;;1.35;;
71152;SDS011;58822;51.438;5.436;2022-07-05T14:51:35;3.22;;;1.20;;
71152;SDS011;58822;51.438;5.436;2022-07-05T14:54:01;2.58;;;1.15;;
71152;SDS011;58822;51.438;5.436;2022-07-05T14:56:26;2.65;;;1.25;;
71152;SDS011;58822;51.438;5.436;2022-07-05T14:58:51;4.18;;;1.48;;
71152;SDS011;58822;51.438;5.436;2022-07-05T15:01:17;5.60;;;1.45;;
71152;SDS011;58822;51.438;5.436;2022-07-05T15:03:43;3.38;;;1.25;;
71152;SDS011;58822;51.438;5.436;2022-07-05T15:06:08;3.78;;;1.38;;
71152;SDS011;58822;51.438;5.436;2022-07-05T15:08:34;6.35;;;1.40;;
71152;SDS011;58822;51.438;5.436;2022-07-05T15:11:00;3.83;;;1.33;;
71152;SDS011;58822;51.438;5.436;2022-07-05T15:13:25;6.95;;;1.40;;
71152;SDS011;58822;51.438;5.436;2022-07-05T15:15:51;7.68;;;1.67;;
71152;SDS011;58822;51.438;5.436;2022-07-05T15:18:17;6.60;;;1.40;;
71152;SDS011;58822;51.438;5.436;2022-07-05T15:20:43;2.67;;;1.23;;
71152;SDS011;58822;51.438;5.436;2022-07-05T15:23:11;4.93;;;1.60;;
71152;SDS011;58822;51.438;5.436;2022-07-05T15:25:39;4.53;;;1.67;;